Terminal Aerodrome Forecast
Issued by NWS Midland/Odessa, TX

Home | Current Version | Previous Version | Text Only | Print | Product List | Glossary On
Versions: 1 2 3 4 5 6 7 8 9 10 11 12 13 14 15 16 17 18
000
FTUS44 KMAF 312200 AAA
TAFMAF
TAF AMD
KMAF 312204Z 3122/0118 18010KT 6SM BR OVC005
     FM010000 17007KT P6SM OVC015
     FM010300 21006KT P6SM SCT030 BKN100
     FM010800 26008KT 5SM BR OVC009
     FM011200 33012KT P6SM SCT050=

USA.gov is the U.S. government's official web portal to all federal, state and local government web resources and services.